sensor_id;sensor_type;location;lat;lon;timestamp;P1;durP1;ratioP1;P2;durP2;ratioP2
16354;SDS011;8287;51.644;8.494;2023-01-28T00:01:46;39.40;;;37.72;;
16354;SDS011;8287;51.644;8.494;2023-01-28T00:04:14;40.63;;;38.83;;
16354;SDS011;8287;51.644;8.494;2023-01-28T00:06:41;42.17;;;40.40;;
16354;SDS011;8287;51.644;8.494;2023-01-28T00:09:08;38.17;;;36.42;;
16354;SDS011;8287;51.644;8.494;2023-01-28T00:11:34;37.08;;;35.55;;
16354;SDS011;8287;51.644;8.494;2023-01-28T00:14:01;42.63;;;40.72;;
16354;SDS011;8287;51.644;8.494;2023-01-28T00:16:28;38.72;;;37.10;;
16354;SDS011;8287;51.644;8.494;2023-01-28T00:18:56;39.00;;;37.33;;
16354;SDS011;8287;51.644;8.494;2023-01-28T00:21:23;38.75;;;37.08;;
16354;SDS011;8287;51.644;8.494;2023-01-28T00:23:50;36.53;;;34.75;;
16354;SDS011;8287;51.644;8.494;2023-01-28T00:26:19;39.97;;;38.28;;
16354;SDS011;8287;51.644;8.494;2023-01-28T00:28:47;42.28;;;40.45;;
16354;SDS011;8287;51.644;8.494;2023-01-28T00:31:14;38.83;;;37.13;;
16354;SDS011;8287;51.644;8.494;2023-01-28T00:33:41;42.35;;;40.38;;
16354;SDS011;8287;51.644;8.494;2023-01-28T00:36:09;38.42;;;36.78;;
16354;SDS011;8287;51.644;8.494;2023-01-28T00:38:37;39.15;;;37.53;;
16354;SDS011;8287;51.644;8.494;2023-01-28T00:41:07;37.38;;;35.83;;
16354;SDS011;8287;51.644;8.494;2023-01-28T00:43:34;36.17;;;34.65;;
16354;SDS011;8287;51.644;8.494;2023-01-28T00:46:01;37.95;;;36.20;;
16354;SDS011;8287;51.644;8.494;2023-01-28T00:48:28;40.45;;;38.63;;
16354;SDS011;8287;51.644;8.494;2023-01-28T00:50:55;42.92;;;41.17;;
16354;SDS011;8287;51.644;8.494;2023-01-28T00:53:22;40.50;;;38.60;;
16354;SDS011;8287;51.644;8.494;2023-01-28T00:55:50;41.63;;;39.55;;
16354;SDS011;8287;51.644;8.494;2023-01-28T00:58:16;30.08;;;28.80;;
16354;SDS011;8287;51.644;8.494;2023-01-28T01:00:43;34.15;;;32.67;;
16354;SDS011;8287;51.644;8.494;2023-01-28T01:03:10;42.58;;;40.75;;
16354;SDS011;8287;51.644;8.494;2023-01-28T01:05:36;37.75;;;36.03;;
16354;SDS011;8287;51.644;8.494;2023-01-28T01:08:03;40.38;;;38.38;;
16354;SDS011;8287;51.644;8.494;2023-01-28T01:10:30;39.25;;;37.25;;
16354;SDS011;8287;51.644;8.494;2023-01-28T01:12:59;39.05;;;37.17;;
16354;SDS011;8287;51.644;8.494;2023-01-28T01:15:25;37.65;;;36.08;;
16354;SDS011;8287;51.644;8.494;2023-01-28T01:17:52;39.03;;;37.35;;
16354;SDS011;8287;51.644;8.494;2023-01-28T01:20:19;40.90;;;39.10;;
16354;SDS011;8287;51.644;8.494;2023-01-28T01:22:48;37.38;;;35.35;;
16354;SDS011;8287;51.644;8.494;2023-01-28T01:25:15;31.50;;;30.13;;
16354;SDS011;8287;51.644;8.494;2023-01-28T01:27:42;37.60;;;36.03;;
16354;SDS011;8287;51.644;8.494;2023-01-28T01:30:11;41.17;;;39.17;;
16354;SDS011;8287;51.644;8.494;2023-01-28T01:32:39;34.47;;;32.92;;
16354;SDS011;8287;51.644;8.494;2023-01-28T01:35:06;36.35;;;34.55;;
16354;SDS011;8287;51.644;8.494;2023-01-28T01:37:35;37.63;;;35.80;;
16354;SDS011;8287;51.644;8.494;2023-01-28T01:40:02;35.67;;;34.13;;
16354;SDS011;8287;51.644;8.494;2023-01-28T01:42:30;37.38;;;35.75;;
16354;SDS011;8287;51.644;8.494;2023-01-28T01:44:58;37.97;;;36.33;;
16354;SDS011;8287;51.644;8.494;2023-01-28T01:47:30;34.50;;;33.05;;
16354;SDS011;8287;51.644;8.494;2023-01-28T01:50:02;30.88;;;29.48;;
16354;SDS011;8287;51.644;8.494;2023-01-28T01:52:33;35.58;;;34.00;;
16354;SDS011;8287;51.644;8.494;2023-01-28T01:55:03;35.58;;;33.90;;
16354;SDS011;8287;51.644;8.494;2023-01-28T01:57:37;34.45;;;32.92;;
16354;SDS011;8287;51.644;8.494;2023-01-28T02:00:04;30.27;;;28.98;;
16354;SDS011;8287;51.644;8.494;2023-01-28T02:02:35;34.25;;;32.80;;
16354;SDS011;8287;51.644;8.494;2023-01-28T02:05:05;34.55;;;32.90;;
16354;SDS011;8287;51.644;8.494;2023-01-28T02:07:33;36.08;;;34.38;;
16354;SDS011;8287;51.644;8.494;2023-01-28T02:10:00;35.72;;;33.83;;
16354;SDS011;8287;51.644;8.494;2023-01-28T02:12:28;30.83;;;29.52;;
16354;SDS011;8287;51.644;8.494;2023-01-28T02:15:00;33.42;;;31.73;;
16354;SDS011;8287;51.644;8.494;2023-01-28T02:17:28;33.80;;;32.25;;
16354;SDS011;8287;51.644;8.494;2023-01-28T02:19:58;28.35;;;27.15;;
16354;SDS011;8287;51.644;8.494;2023-01-28T02:22:36;36.47;;;34.85;;
16354;SDS011;8287;51.644;8.494;2023-01-28T02:25:40;38.38;;;36.75;;
16354;SDS011;8287;51.644;8.494;2023-01-28T02:28:26;30.05;;;28.63;;
16354;SDS011;8287;51.644;8.494;2023-01-28T02:31:00;32.08;;;30.67;;
16354;SDS011;8287;51.644;8.494;2023-01-28T02:33:36;34.08;;;32.45;;
16354;SDS011;8287;51.644;8.494;2023-01-28T02:36:10;30.48;;;29.08;;
16354;SDS011;8287;51.644;8.494;2023-01-28T02:38:42;33.20;;;31.60;;
16354;SDS011;8287;51.644;8.494;2023-01-28T02:41:14;33.22;;;31.63;;
16354;SDS011;8287;51.644;8.494;2023-01-28T02:43:50;30.83;;;29.52;;
16354;SDS011;8287;51.644;8.494;2023-01-28T02:46:18;32.03;;;30.40;;
16354;SDS011;8287;51.644;8.494;2023-01-28T02:49:06;41.80;;;39.85;;
16354;SDS011;8287;51.644;8.494;2023-01-28T02:51:42;31.50;;;30.00;;
16354;SDS011;8287;51.644;8.494;2023-01-28T02:54:20;29.63;;;28.20;;
16354;SDS011;8287;51.644;8.494;2023-01-28T02:56:55;31.98;;;30.48;;
16354;SDS011;8287;51.644;8.494;2023-01-28T02:59:30;31.30;;;30.00;;
16354;SDS011;8287;51.644;8.494;2023-01-28T03:02:03;50.63;;;48.42;;
16354;SDS011;8287;51.644;8.494;2023-01-28T03:04:40;33.13;;;31.52;;
16354;SDS011;8287;51.644;8.494;2023-01-28T03:07:12;30.63;;;29.02;;
16354;SDS011;8287;51.644;8.494;2023-01-28T03:09:42;30.58;;;29.17;;
16354;SDS011;8287;51.644;8.494;2023-01-28T03:12:11;31.33;;;29.98;;
16354;SDS011;8287;51.644;8.494;2023-01-28T03:15:00;32.05;;;30.55;;
16354;SDS011;8287;51.644;8.494;2023-01-28T03:17:49;29.67;;;28.13;;
16354;SDS011;8287;51.644;8.494;2023-01-28T03:20:38;31.75;;;30.00;;
16354;SDS011;8287;51.644;8.494;2023-01-28T03:23:46;30.73;;;29.42;;
16354;SDS011;8287;51.644;8.494;2023-01-28T03:26:36;31.17;;;29.80;;
16354;SDS011;8287;51.644;8.494;2023-01-28T03:29:23;32.90;;;31.30;;
16354;SDS011;8287;51.644;8.494;2023-01-28T03:32:11;29.70;;;28.35;;
16354;SDS011;8287;51.644;8.494;2023-01-28T03:34:55;31.02;;;28.90;;
16354;SDS011;8287;51.644;8.494;2023-01-28T03:37:40;30.55;;;29.25;;
16354;SDS011;8287;51.644;8.494;2023-01-28T03:40:07;33.55;;;31.85;;
16354;SDS011;8287;51.644;8.494;2023-01-28T03:42:36;36.45;;;34.75;;
16354;SDS011;8287;51.644;8.494;2023-01-28T03:45:03;34.03;;;32.53;;
16354;SDS011;8287;51.644;8.494;2023-01-28T03:47:33;34.95;;;33.33;;
16354;SDS011;8287;51.644;8.494;2023-01-28T03:49:59;36.65;;;35.05;;
16354;SDS011;8287;51.644;8.494;2023-01-28T03:52:27;30.92;;;29.50;;
16354;SDS011;8287;51.644;8.494;2023-01-28T03:54:56;29.15;;;27.75;;
16354;SDS011;8287;51.644;8.494;2023-01-28T03:57:23;34.22;;;32.67;;
16354;SDS011;8287;51.644;8.494;2023-01-28T03:59:52;31.88;;;30.38;;
16354;SDS011;8287;51.644;8.494;2023-01-28T04:02:20;30.20;;;28.80;;
16354;SDS011;8287;51.644;8.494;2023-01-28T04:04:48;31.80;;;30.35;;
16354;SDS011;8287;51.644;8.494;2023-01-28T04:07:15;31.17;;;29.80;;
16354;SDS011;8287;51.644;8.494;2023-01-28T04:09:42;29.80;;;28.27;;
16354;SDS011;8287;51.644;8.494;2023-01-28T04:12:09;32.45;;;30.85;;
16354;SDS011;8287;51.644;8.494;2023-01-28T04:14:36;29.67;;;28.38;;
16354;SDS011;8287;51.644;8.494;2023-01-28T04:17:04;32.75;;;31.35;;
16354;SDS011;8287;51.644;8.494;2023-01-28T04:19:32;32.17;;;30.73;;
16354;SDS011;8287;51.644;8.494;2023-01-28T04:22:03;31.52;;;30.05;;
16354;SDS011;8287;51.644;8.494;2023-01-28T04:24:31;30.58;;;29.27;;
16354;SDS011;8287;51.644;8.494;2023-01-28T04:26:58;29.98;;;28.67;;
16354;SDS011;8287;51.644;8.494;2023-01-28T04:29:25;30.35;;;29.05;;
16354;SDS011;8287;51.644;8.494;2023-01-28T04:31:51;36.47;;;34.80;;
16354;SDS011;8287;51.644;8.494;2023-01-28T04:34:18;31.90;;;30.40;;
16354;SDS011;8287;51.644;8.494;2023-01-28T04:36:45;30.95;;;29.65;;
16354;SDS011;8287;51.644;8.494;2023-01-28T04:39:12;32.67;;;31.08;;
16354;SDS011;8287;51.644;8.494;2023-01-28T04:41:39;31.75;;;30.15;;
16354;SDS011;8287;51.644;8.494;2023-01-28T04:44:06;30.13;;;28.83;;
16354;SDS011;8287;51.644;8.494;2023-01-28T04:46:32;30.90;;;29.30;;
16354;SDS011;8287;51.644;8.494;2023-01-28T04:48:59;32.70;;;31.17;;
16354;SDS011;8287;51.644;8.494;2023-01-28T04:51:26;29.70;;;28.35;;
16354;SDS011;8287;51.644;8.494;2023-01-28T04:53:52;29.58;;;28.38;;
16354;SDS011;8287;51.644;8.494;2023-01-28T04:56:20;32.10;;;30.52;;
16354;SDS011;8287;51.644;8.494;2023-01-28T04:58:47;42.72;;;40.72;;
16354;SDS011;8287;51.644;8.494;2023-01-28T05:01:13;28.05;;;26.75;;
16354;SDS011;8287;51.644;8.494;2023-01-28T05:03:40;34.28;;;32.70;;
16354;SDS011;8287;51.644;8.494;2023-01-28T05:06:06;30.60;;;29.20;;
16354;SDS011;8287;51.644;8.494;2023-01-28T05:08:34;30.45;;;29.02;;
16354;SDS011;8287;51.644;8.494;2023-01-28T05:11:01;32.83;;;31.38;;
16354;SDS011;8287;51.644;8.494;2023-01-28T05:13:29;29.67;;;28.42;;
16354;SDS011;8287;51.644;8.494;2023-01-28T05:15:55;32.67;;;31.27;;
16354;SDS011;8287;51.644;8.494;2023-01-28T05:18:22;36.70;;;34.88;;
16354;SDS011;8287;51.644;8.494;2023-01-28T05:20:48;30.67;;;29.08;;
16354;SDS011;8287;51.644;8.494;2023-01-28T05:23:15;33.55;;;32.05;;
16354;SDS011;8287;51.644;8.494;2023-01-28T05:25:42;31.05;;;29.67;;
16354;SDS011;8287;51.644;8.494;2023-01-28T05:28:09;32.53;;;31.05;;
16354;SDS011;8287;51.644;8.494;2023-01-28T05:30:38;32.05;;;30.65;;
16354;SDS011;8287;51.644;8.494;2023-01-28T05:33:04;30.52;;;29.17;;
16354;SDS011;8287;51.644;8.494;2023-01-28T05:35:31;29.92;;;28.52;;
16354;SDS011;8287;51.644;8.494;2023-01-28T05:37:58;30.25;;;29.00;;
16354;SDS011;8287;51.644;8.494;2023-01-28T05:40:24;29.45;;;28.15;;
16354;SDS011;8287;51.644;8.494;2023-01-28T05:42:51;30.05;;;28.75;;
16354;SDS011;8287;51.644;8.494;2023-01-28T05:45:17;28.83;;;27.25;;
16354;SDS011;8287;51.644;8.494;2023-01-28T05:47:46;30.25;;;28.85;;
16354;SDS011;8287;51.644;8.494;2023-01-28T05:50:12;32.25;;;30.88;;
16354;SDS011;8287;51.644;8.494;2023-01-28T05:52:40;31.75;;;30.35;;
16354;SDS011;8287;51.644;8.494;2023-01-28T05:55:07;29.33;;;28.05;;
16354;SDS011;8287;51.644;8.494;2023-01-28T05:57:34;29.35;;;28.10;;
16354;SDS011;8287;51.644;8.494;2023-01-28T06:00:00;30.77;;;29.48;;
16354;SDS011;8287;51.644;8.494;2023-01-28T06:02:29;30.23;;;28.83;;
16354;SDS011;8287;51.644;8.494;2023-01-28T06:04:57;29.23;;;27.92;;
16354;SDS011;8287;51.644;8.494;2023-01-28T06:07:24;29.38;;;28.08;;
16354;SDS011;8287;51.644;8.494;2023-01-28T06:09:51;30.70;;;29.38;;
16354;SDS011;8287;51.644;8.494;2023-01-28T06:12:17;28.48;;;27.17;;
16354;SDS011;8287;51.644;8.494;2023-01-28T06:14:44;30.52;;;29.23;;
16354;SDS011;8287;51.644;8.494;2023-01-28T06:17:11;30.33;;;28.95;;
16354;SDS011;8287;51.644;8.494;2023-01-28T06:19:37;34.58;;;33.08;;
16354;SDS011;8287;51.644;8.494;2023-01-28T06:22:05;30.27;;;28.75;;
16354;SDS011;8287;51.644;8.494;2023-01-28T06:24:32;32.00;;;30.48;;
16354;SDS011;8287;51.644;8.494;2023-01-28T06:26:58;31.33;;;29.83;;
16354;SDS011;8287;51.644;8.494;2023-01-28T06:29:25;31.73;;;30.23;;
16354;SDS011;8287;51.644;8.494;2023-01-28T06:31:51;29.10;;;27.80;;
16354;SDS011;8287;51.644;8.494;2023-01-28T06:34:18;31.92;;;30.63;;
16354;SDS011;8287;51.644;8.494;2023-01-28T06:36:45;32.72;;;31.30;;
16354;SDS011;8287;51.644;8.494;2023-01-28T06:39:13;32.97;;;31.33;;
16354;SDS011;8287;51.644;8.494;2023-01-28T06:41:40;29.30;;;28.10;;
16354;SDS011;8287;51.644;8.494;2023-01-28T06:44:06;30.02;;;28.73;;
16354;SDS011;8287;51.644;8.494;2023-01-28T06:46:33;31.70;;;29.73;;
16354;SDS011;8287;51.644;8.494;2023-01-28T06:49:00;28.85;;;27.60;;
16354;SDS011;8287;51.644;8.494;2023-01-28T06:51:27;29.70;;;28.13;;
16354;SDS011;8287;51.644;8.494;2023-01-28T06:53:53;29.48;;;28.05;;
16354;SDS011;8287;51.644;8.494;2023-01-28T06:56:21;29.70;;;28.20;;
16354;SDS011;8287;51.644;8.494;2023-01-28T06:58:48;32.65;;;31.05;;
16354;SDS011;8287;51.644;8.494;2023-01-28T07:01:14;31.70;;;30.20;;
16354;SDS011;8287;51.644;8.494;2023-01-28T07:03:41;30.48;;;29.10;;
16354;SDS011;8287;51.644;8.494;2023-01-28T07:06:07;29.52;;;28.20;;
16354;SDS011;8287;51.644;8.494;2023-01-28T07:08:34;28.90;;;27.65;;
16354;SDS011;8287;51.644;8.494;2023-01-28T07:11:01;30.92;;;29.52;;
16354;SDS011;8287;51.644;8.494;2023-01-28T07:13:30;29.90;;;28.60;;
16354;SDS011;8287;51.644;8.494;2023-01-28T07:15:56;33.47;;;31.95;;
16354;SDS011;8287;51.644;8.494;2023-01-28T07:18:23;30.40;;;29.05;;
16354;SDS011;8287;51.644;8.494;2023-01-28T07:20:49;31.77;;;30.38;;
16354;SDS011;8287;51.644;8.494;2023-01-28T07:23:16;29.58;;;28.15;;
16354;SDS011;8287;51.644;8.494;2023-01-28T07:25:42;31.65;;;30.25;;
16354;SDS011;8287;51.644;8.494;2023-01-28T07:28:09;33.10;;;31.20;;
16354;SDS011;8287;51.644;8.494;2023-01-28T07:30:37;29.98;;;28.58;;
16354;SDS011;8287;51.644;8.494;2023-01-28T07:33:03;30.90;;;29.48;;
16354;SDS011;8287;51.644;8.494;2023-01-28T07:35:30;31.38;;;29.88;;
16354;SDS011;8287;51.644;8.494;2023-01-28T07:37:57;30.15;;;28.75;;
16354;SDS011;8287;51.644;8.494;2023-01-28T07:40:26;31.13;;;29.45;;
16354;SDS011;8287;51.644;8.494;2023-01-28T07:42:53;31.67;;;30.10;;
16354;SDS011;8287;51.644;8.494;2023-01-28T07:45:21;30.65;;;28.90;;
16354;SDS011;8287;51.644;8.494;2023-01-28T07:47:53;31.83;;;30.33;;
16354;SDS011;8287;51.644;8.494;2023-01-28T07:50:20;30.00;;;28.52;;
16354;SDS011;8287;51.644;8.494;2023-01-28T07:52:47;28.80;;;27.45;;
16354;SDS011;8287;51.644;8.494;2023-01-28T07:55:14;30.15;;;28.65;;
16354;SDS011;8287;51.644;8.494;2023-01-28T07:57:47;29.98;;;28.58;;
16354;SDS011;8287;51.644;8.494;2023-01-28T08:00:15;28.70;;;27.40;;
16354;SDS011;8287;51.644;8.494;2023-01-28T08:02:42;31.23;;;29.67;;
16354;SDS011;8287;51.644;8.494;2023-01-28T08:05:13;30.05;;;28.77;;
16354;SDS011;8287;51.644;8.494;2023-01-28T08:07:41;31.27;;;29.83;;
16354;SDS011;8287;51.644;8.494;2023-01-28T08:10:08;32.50;;;30.85;;
16354;SDS011;8287;51.644;8.494;2023-01-28T08:12:35;31.58;;;30.17;;
16354;SDS011;8287;51.644;8.494;2023-01-28T08:15:02;25.27;;;24.17;;
16354;SDS011;8287;51.644;8.494;2023-01-28T08:17:30;26.27;;;24.63;;
16354;SDS011;8287;51.644;8.494;2023-01-28T08:19:57;26.63;;;25.05;;
16354;SDS011;8287;51.644;8.494;2023-01-28T08:22:25;26.50;;;25.15;;
16354;SDS011;8287;51.644;8.494;2023-01-28T08:24:51;28.30;;;26.80;;
16354;SDS011;8287;51.644;8.494;2023-01-28T08:27:18;27.30;;;25.95;;
16354;SDS011;8287;51.644;8.494;2023-01-28T08:29:45;27.48;;;26.17;;
16354;SDS011;8287;51.644;8.494;2023-01-28T08:32:11;27.45;;;26.25;;
16354;SDS011;8287;51.644;8.494;2023-01-28T08:34:38;26.38;;;25.17;;
16354;SDS011;8287;51.644;8.494;2023-01-28T08:37:04;27.77;;;26.48;;
16354;SDS011;8287;51.644;8.494;2023-01-28T08:39:32;25.55;;;24.30;;
16354;SDS011;8287;51.644;8.494;2023-01-28T08:41:59;29.35;;;28.08;;
16354;SDS011;8287;51.644;8.494;2023-01-28T08:44:25;23.88;;;22.80;;
16354;SDS011;8287;51.644;8.494;2023-01-28T08:46:52;26.08;;;24.83;;
16354;SDS011;8287;51.644;8.494;2023-01-28T08:49:18;24.73;;;23.58;;
16354;SDS011;8287;51.644;8.494;2023-01-28T08:51:46;24.83;;;23.73;;
16354;SDS011;8287;51.644;8.494;2023-01-28T08:54:13;23.65;;;22.65;;
16354;SDS011;8287;51.644;8.494;2023-01-28T08:56:41;27.85;;;26.73;;
16354;SDS011;8287;51.644;8.494;2023-01-28T08:59:09;24.92;;;23.88;;
16354;SDS011;8287;51.644;8.494;2023-01-28T09:01:35;27.17;;;25.95;;
16354;SDS011;8287;51.644;8.494;2023-01-28T09:04:02;28.05;;;26.52;;
16354;SDS011;8287;51.644;8.494;2023-01-28T09:06:29;28.63;;;27.40;;
16354;SDS011;8287;51.644;8.494;2023-01-28T09:08:56;24.60;;;23.60;;
16354;SDS011;8287;51.644;8.494;2023-01-28T09:11:23;30.08;;;28.38;;
16354;SDS011;8287;51.644;8.494;2023-01-28T09:13:51;29.95;;;28.13;;
16354;SDS011;8287;51.644;8.494;2023-01-28T09:16:17;42.65;;;39.17;;
16354;SDS011;8287;51.644;8.494;2023-01-28T09:18:44;31.20;;;29.27;;
16354;SDS011;8287;51.644;8.494;2023-01-28T09:21:12;30.55;;;28.92;;
16354;SDS011;8287;51.644;8.494;2023-01-28T09:23:39;31.08;;;29.20;;
16354;SDS011;8287;51.644;8.494;2023-01-28T09:26:06;28.65;;;27.42;;
16354;SDS011;8287;51.644;8.494;2023-01-28T09:28:33;28.83;;;27.52;;
16354;SDS011;8287;51.644;8.494;2023-01-28T09:31:02;25.98;;;24.88;;
16354;SDS011;8287;51.644;8.494;2023-01-28T09:33:29;26.70;;;25.50;;
16354;SDS011;8287;51.644;8.494;2023-01-28T09:35:58;28.13;;;26.42;;
16354;SDS011;8287;51.644;8.494;2023-01-28T09:38:25;28.60;;;27.40;;
16354;SDS011;8287;51.644;8.494;2023-01-28T09:40:52;26.42;;;25.08;;
16354;SDS011;8287;51.644;8.494;2023-01-28T09:43:31;27.27;;;26.08;;
16354;SDS011;8287;51.644;8.494;2023-01-28T09:46:17;28.15;;;26.95;;
16354;SDS011;8287;51.644;8.494;2023-01-28T09:48:44;27.13;;;25.95;;
16354;SDS011;8287;51.644;8.494;2023-01-28T09:51:17;28.58;;;27.20;;
16354;SDS011;8287;51.644;8.494;2023-01-28T09:53:52;28.40;;;27.08;;
16354;SDS011;8287;51.644;8.494;2023-01-28T09:56:23;28.70;;;27.25;;
16354;SDS011;8287;51.644;8.494;2023-01-28T09:58:51;28.35;;;27.05;;
16354;SDS011;8287;51.644;8.494;2023-01-28T10:01:24;29.08;;;27.77;;
16354;SDS011;8287;51.644;8.494;2023-01-28T10:04:05;31.42;;;29.83;;
16354;SDS011;8287;51.644;8.494;2023-01-28T10:06:49;30.55;;;28.77;;
16354;SDS011;8287;51.644;8.494;2023-01-28T10:09:30;31.35;;;29.85;;
16354;SDS011;8287;51.644;8.494;2023-01-28T10:15:24;30.25;;;28.90;;
16354;SDS011;8287;51.644;8.494;2023-01-28T10:18:03;28.20;;;26.90;;
16354;SDS011;8287;51.644;8.494;2023-01-28T10:20:35;27.48;;;26.17;;
16354;SDS011;8287;51.644;8.494;2023-01-28T10:23:07;29.58;;;28.23;;
16354;SDS011;8287;51.644;8.494;2023-01-28T10:25:41;26.45;;;25.15;;
16354;SDS011;8287;51.644;8.494;2023-01-28T10:28:13;32.25;;;30.65;;
16354;SDS011;8287;51.644;8.494;2023-01-28T10:30:45;31.42;;;29.92;;
16354;SDS011;8287;51.644;8.494;2023-01-28T10:33:16;30.95;;;29.27;;
16354;SDS011;8287;51.644;8.494;2023-01-28T10:35:45;31.55;;;29.80;;
16354;SDS011;8287;51.644;8.494;2023-01-28T10:38:13;28.40;;;27.02;;
16354;SDS011;8287;51.644;8.494;2023-01-28T10:40:42;31.85;;;30.33;;
16354;SDS011;8287;51.644;8.494;2023-01-28T10:43:12;30.65;;;28.83;;
16354;SDS011;8287;51.644;8.494;2023-01-28T10:45:41;31.10;;;29.70;;
16354;SDS011;8287;51.644;8.494;2023-01-28T10:48:20;30.73;;;29.13;;
16354;SDS011;8287;51.644;8.494;2023-01-28T10:50:50;33.10;;;31.42;;
16354;SDS011;8287;51.644;8.494;2023-01-28T10:53:17;32.28;;;30.67;;
16354;SDS011;8287;51.644;8.494;2023-01-28T10:55:47;32.47;;;30.88;;
16354;SDS011;8287;51.644;8.494;2023-01-28T10:58:17;35.30;;;33.22;;
16354;SDS011;8287;51.644;8.494;2023-01-28T11:00:46;36.85;;;34.63;;
16354;SDS011;8287;51.644;8.494;2023-01-28T11:03:20;31.55;;;29.77;;
16354;SDS011;8287;51.644;8.494;2023-01-28T11:05:51;26.55;;;25.23;;
16354;SDS011;8287;51.644;8.494;2023-01-28T11:08:20;29.15;;;27.70;;
16354;SDS011;8287;51.644;8.494;2023-01-28T11:10:48;30.42;;;28.92;;
16354;SDS011;8287;51.644;8.494;2023-01-28T11:13:17;30.80;;;29.30;;
16354;SDS011;8287;51.644;8.494;2023-01-28T11:15:46;28.90;;;27.30;;
16354;SDS011;8287;51.644;8.494;2023-01-28T11:18:15;27.67;;;25.98;;
16354;SDS011;8287;51.644;8.494;2023-01-28T11:20:50;31.92;;;30.20;;
16354;SDS011;8287;51.644;8.494;2023-01-28T11:23:20;29.98;;;28.48;;
16354;SDS011;8287;51.644;8.494;2023-01-28T11:25:57;41.38;;;38.67;;
16354;SDS011;8287;51.644;8.494;2023-01-28T11:28:25;32.50;;;30.80;;
16354;SDS011;8287;51.644;8.494;2023-01-28T11:30:52;34.63;;;32.72;;
16354;SDS011;8287;51.644;8.494;2023-01-28T11:33:23;37.08;;;35.22;;
16354;SDS011;8287;51.644;8.494;2023-01-28T11:36:04;37.35;;;35.45;;
16354;SDS011;8287;51.644;8.494;2023-01-28T11:38:32;35.92;;;34.13;;
16354;SDS011;8287;51.644;8.494;2023-01-28T11:40:59;38.20;;;36.30;;
16354;SDS011;8287;51.644;8.494;2023-01-28T11:43:30;36.05;;;33.42;;
16354;SDS011;8287;51.644;8.494;2023-01-28T11:45:59;36.78;;;34.60;;
16354;SDS011;8287;51.644;8.494;2023-01-28T11:48:40;34.90;;;32.60;;
16354;SDS011;8287;51.644;8.494;2023-01-28T11:51:22;32.40;;;30.55;;
16354;SDS011;8287;51.644;8.494;2023-01-28T11:54:00;33.47;;;31.42;;
16354;SDS011;8287;51.644;8.494;2023-01-28T11:56:39;36.80;;;34.70;;
16354;SDS011;8287;51.644;8.494;2023-01-28T11:59:22;35.15;;;33.10;;
16354;SDS011;8287;51.644;8.494;2023-01-28T12:02:03;33.80;;;31.50;;
16354;SDS011;8287;51.644;8.494;2023-01-28T12:04:49;32.40;;;30.40;;
16354;SDS011;8287;51.644;8.494;2023-01-28T12:07:28;33.92;;;31.80;;
16354;SDS011;8287;51.644;8.494;2023-01-28T12:10:03;34.47;;;32.35;;
16354;SDS011;8287;51.644;8.494;2023-01-28T12:12:43;36.30;;;34.45;;
16354;SDS011;8287;51.644;8.494;2023-01-28T12:15:38;38.05;;;36.05;;
16354;SDS011;8287;51.644;8.494;2023-01-28T12:18:18;39.65;;;37.42;;
16354;SDS011;8287;51.644;8.494;2023-01-28T12:20:55;36.83;;;34.90;;
16354;SDS011;8287;51.644;8.494;2023-01-28T12:23:41;35.25;;;33.33;;
16354;SDS011;8287;51.644;8.494;2023-01-28T12:26:18;49.80;;;45.78;;
16354;SDS011;8287;51.644;8.494;2023-01-28T12:28:56;39.25;;;36.67;;
16354;SDS011;8287;51.644;8.494;2023-01-28T12:31:45;38.50;;;35.75;;
16354;SDS011;8287;51.644;8.494;2023-01-28T12:34:36;37.88;;;35.78;;
16354;SDS011;8287;51.644;8.494;2023-01-28T12:37:14;35.45;;;33.35;;
16354;SDS011;8287;51.644;8.494;2023-01-28T12:39:54;36.97;;;34.78;;
16354;SDS011;8287;51.644;8.494;2023-01-28T12:42:33;35.75;;;33.50;;
16354;SDS011;8287;51.644;8.494;2023-01-28T12:45:09;36.83;;;34.40;;
16354;SDS011;8287;51.644;8.494;2023-01-28T12:47:42;36.28;;;33.90;;
16354;SDS011;8287;51.644;8.494;2023-01-28T12:50:15;34.67;;;32.85;;
16354;SDS011;8287;51.644;8.494;2023-01-28T12:52:48;36.05;;;33.03;;
16354;SDS011;8287;51.644;8.494;2023-01-28T12:55:21;34.17;;;31.70;;
16354;SDS011;8287;51.644;8.494;2023-01-28T12:58:02;34.80;;;32.70;;
16354;SDS011;8287;51.644;8.494;2023-01-28T13:00:33;35.88;;;33.90;;
16354;SDS011;8287;51.644;8.494;2023-01-28T13:03:08;37.95;;;35.58;;
16354;SDS011;8287;51.644;8.494;2023-01-28T13:05:41;38.17;;;35.97;;
16354;SDS011;8287;51.644;8.494;2023-01-28T13:08:12;40.95;;;38.55;;
16354;SDS011;8287;51.644;8.494;2023-01-28T13:10:45;37.40;;;35.17;;
16354;SDS011;8287;51.644;8.494;2023-01-28T13:13:15;35.75;;;33.65;;
16354;SDS011;8287;51.644;8.494;2023-01-28T13:15:44;35.60;;;33.53;;
16354;SDS011;8287;51.644;8.494;2023-01-28T13:20:56;28.77;;;26.83;;
16354;SDS011;8287;51.644;8.494;2023-01-28T13:23:24;31.90;;;29.65;;
16354;SDS011;8287;51.644;8.494;2023-01-28T13:26:08;32.10;;;30.20;;
16354;SDS011;8287;51.644;8.494;2023-01-28T13:28:37;33.63;;;31.52;;
16354;SDS011;8287;51.644;8.494;2023-01-28T13:31:04;31.67;;;29.70;;
16354;SDS011;8287;51.644;8.494;2023-01-28T13:33:33;30.92;;;29.20;;
16354;SDS011;8287;51.644;8.494;2023-01-28T13:36:13;37.00;;;34.60;;
16354;SDS011;8287;51.644;8.494;2023-01-28T13:38:57;31.63;;;29.85;;
16354;SDS011;8287;51.644;8.494;2023-01-28T13:41:36;30.40;;;28.45;;
16354;SDS011;8287;51.644;8.494;2023-01-28T13:44:15;30.33;;;28.63;;
16354;SDS011;8287;51.644;8.494;2023-01-28T13:46:43;33.15;;;31.20;;
16354;SDS011;8287;51.644;8.494;2023-01-28T13:49:11;31.33;;;29.35;;
16354;SDS011;8287;51.644;8.494;2023-01-28T13:51:44;31.25;;;29.33;;
16354;SDS011;8287;51.644;8.494;2023-01-28T13:54:23;31.65;;;29.95;;
16354;SDS011;8287;51.644;8.494;2023-01-28T13:56:57;36.72;;;34.50;;
16354;SDS011;8287;51.644;8.494;2023-01-28T13:59:46;33.05;;;31.15;;
16354;SDS011;8287;51.644;8.494;2023-01-28T14:02:31;37.25;;;34.80;;
16354;SDS011;8287;51.644;8.494;2023-01-28T14:05:24;36.05;;;34.05;;
16354;SDS011;8287;51.644;8.494;2023-01-28T14:08:25;35.60;;;33.53;;
16354;SDS011;8287;51.644;8.494;2023-01-28T14:11:12;41.97;;;39.70;;
16354;SDS011;8287;51.644;8.494;2023-01-28T14:14:10;40.00;;;37.88;;
16354;SDS011;8287;51.644;8.494;2023-01-28T14:16:57;36.63;;;34.05;;
16354;SDS011;8287;51.644;8.494;2023-01-28T14:19:26;36.95;;;34.55;;
16354;SDS011;8287;51.644;8.494;2023-01-28T14:21:56;34.28;;;32.33;;
16354;SDS011;8287;51.644;8.494;2023-01-28T14:24:23;34.08;;;31.95;;
16354;SDS011;8287;51.644;8.494;2023-01-28T14:26:52;33.70;;;31.50;;
16354;SDS011;8287;51.644;8.494;2023-01-28T14:29:36;31.17;;;29.27;;
16354;SDS011;8287;51.644;8.494;2023-01-28T14:32:11;32.63;;;30.70;;
16354;SDS011;8287;51.644;8.494;2023-01-28T14:34:40;32.20;;;30.02;;
16354;SDS011;8287;51.644;8.494;2023-01-28T14:37:08;31.65;;;29.80;;
16354;SDS011;8287;51.644;8.494;2023-01-28T14:39:40;33.10;;;31.15;;
16354;SDS011;8287;51.644;8.494;2023-01-28T14:42:12;32.05;;;30.25;;
16354;SDS011;8287;51.644;8.494;2023-01-28T14:44:45;33.28;;;31.35;;
16354;SDS011;8287;51.644;8.494;2023-01-28T14:47:27;35.85;;;33.83;;
16354;SDS011;8287;51.644;8.494;2023-01-28T14:50:20;36.08;;;33.97;;
16354;SDS011;8287;51.644;8.494;2023-01-28T14:53:10;37.13;;;35.03;;
16354;SDS011;8287;51.644;8.494;2023-01-28T14:55:49;34.90;;;33.00;;
16354;SDS011;8287;51.644;8.494;2023-01-28T14:58:22;31.60;;;29.25;;
16354;SDS011;8287;51.644;8.494;2023-01-28T15:00:54;32.92;;;30.92;;
16354;SDS011;8287;51.644;8.494;2023-01-28T15:03:23;35.70;;;33.22;;